createdAt,value
2023-07-29T00:02:27.730Z,2.83
2023-07-29T00:07:30.874Z,1.95
2023-07-29T00:12:32.432Z,2.50
2023-07-29T00:17:34.036Z,2.42
2023-07-29T00:22:35.594Z,2.45
2023-07-29T00:27:37.179Z,2.53
2023-07-29T00:32:39.123Z,2.58
2023-07-29T00:37:40.972Z,3.10
2023-07-29T00:42:42.569Z,2.78
2023-07-29T00:47:44.838Z,2.80
2023-07-29T00:52:47.123Z,3.47
2023-07-29T00:57:49.204Z,3.30
2023-07-29T01:02:51.083Z,3.05
2023-07-29T01:08:18.261Z,3.88
2023-07-29T01:13:49.178Z,3.83
2023-07-29T01:18:55.134Z,3.92
2023-07-29T01:23:59.988Z,4.18
2023-07-29T01:29:01.729Z,4.30
2023-07-29T01:34:13.229Z,3.38
2023-07-29T01:39:17.377Z,4.50
2023-07-29T01:44:20.104Z,4.03
2023-07-29T01:49:22.758Z,6.07
2023-07-29T01:54:24.409Z,5.50
2023-07-29T01:59:26.028Z,5.30
2023-07-29T02:04:27.864Z,5.30
2023-07-29T02:09:29.477Z,5.38
2023-07-29T02:14:31.025Z,3.97
2023-07-29T02:19:32.625Z,4.72
2023-07-29T02:24:34.234Z,4.78
2023-07-29T02:29:35.802Z,4.78
2023-07-29T02:34:37.443Z,4.50
2023-07-29T02:39:39.179Z,4.88
2023-07-29T02:44:41.354Z,4.45
2023-07-29T02:49:43.033Z,4.88
2023-07-29T02:54:44.609Z,4.78
2023-07-29T02:59:46.192Z,4.80
2023-07-29T03:04:49.228Z,4.90
2023-07-29T03:09:50.833Z,5.45
2023-07-29T03:14:52.440Z,5.47
2023-07-29T03:19:54.158Z,5.65
2023-07-29T03:24:55.731Z,6.00
2023-07-29T03:29:57.387Z,6.40
2023-07-29T03:34:58.952Z,7.63
2023-07-29T03:40:02.314Z,9.05
2023-07-29T03:45:07.019Z,4.75
2023-07-29T03:50:09.293Z,3.78
2023-07-29T03:55:11.053Z,4.15
2023-07-29T04:00:12.857Z,4.32
2023-07-29T04:05:17.477Z,4.47
2023-07-29T04:10:19.553Z,4.38
2023-07-29T04:15:21.432Z,4.70
2023-07-29T04:20:23.174Z,4.82
2023-07-29T04:25:24.753Z,5.18
2023-07-29T04:30:26.471Z,5.50
2023-07-29T04:35:28.131Z,4.72
2023-07-29T04:40:29.728Z,5.07
2023-07-29T04:45:31.852Z,5.05
2023-07-29T04:50:33.554Z,5.40
2023-07-29T04:55:35.195Z,5.63
2023-07-29T05:00:37.405Z,5.57
2023-07-29T05:05:39.109Z,5.75
2023-07-29T05:10:40.672Z,7.25
2023-07-29T05:15:42.394Z,6.93
2023-07-29T05:20:44.146Z,6.63
2023-07-29T05:25:45.782Z,5.78
2023-07-29T05:30:48.016Z,4.28
2023-07-29T05:35:49.744Z,7.53
2023-07-29T05:40:51.398Z,4.60
2023-07-29T05:45:53.060Z,4.05
2023-07-29T05:50:55.989Z,3.65
2023-07-29T05:55:57.720Z,4.15
2023-07-29T06:00:59.550Z,3.95
2023-07-29T06:06:01.432Z,4.68
2023-07-29T06:11:03.132Z,4.82
2023-07-29T06:16:05.043Z,4.63
2023-07-29T06:21:06.975Z,4.47
2023-07-29T06:26:08.942Z,3.95
2023-07-29T06:31:10.846Z,3.28
2023-07-29T06:36:12.930Z,3.30
2023-07-29T06:41:16.435Z,3.90
2023-07-29T06:46:19.095Z,3.78
2023-07-29T06:51:20.819Z,3.47
2023-07-29T06:56:22.398Z,3.00
2023-07-29T07:01:24.061Z,3.13
2023-07-29T07:06:25.739Z,2.65
2023-07-29T07:11:31.268Z,2.70
2023-07-29T07:16:33.002Z,2.55
2023-07-29T07:21:34.664Z,2.17
2023-07-29T07:26:38.344Z,2.47
2023-07-29T07:31:40.179Z,2.45
2023-07-29T07:36:44.115Z,2.40
2023-07-29T07:41:46.928Z,2.70
2023-07-29T07:46:48.548Z,3.10
2023-07-29T07:51:50.374Z,2.38
2023-07-29T07:56:52.240Z,2.38
2023-07-29T08:01:54.005Z,2.08
2023-07-29T08:06:55.555Z,2.40
2023-07-29T08:11:57.134Z,1.98
2023-07-29T08:16:58.780Z,2.00
2023-07-29T08:22:00.492Z,2.33
2023-07-29T08:27:02.283Z,1.92
2023-07-29T08:32:03.973Z,1.50
2023-07-29T08:37:05.818Z,1.23
2023-07-29T08:42:12.602Z,1.80
2023-07-29T08:47:14.323Z,2.10
2023-07-29T08:52:16.847Z,1.33
2023-07-29T08:57:18.934Z,1.45
2023-07-29T09:02:23.374Z,1.88
2023-07-29T09:07:26.289Z,1.83
2023-07-29T09:12:28.068Z,1.27
2023-07-29T09:17:33.593Z,1.35
2023-07-29T09:22:35.629Z,1.52
2023-07-29T09:27:37.422Z,1.05
2023-07-29T09:32:40.449Z,1.23
2023-07-29T09:37:42.093Z,1.23
2023-07-29T09:42:54.262Z,1.30
2023-07-29T09:47:58.770Z,1.02
2023-07-29T09:53:00.751Z,1.00
2023-07-29T09:58:03.212Z,1.10
2023-07-29T10:03:05.427Z,1.02
2023-07-29T10:08:07.786Z,0.85
2023-07-29T10:13:11.112Z,0.93
2023-07-29T10:18:13.241Z,1.38
2023-07-29T10:23:16.416Z,1.83
2023-07-29T10:28:23.256Z,1.52
2023-07-29T10:33:25.465Z,1.60
2023-07-29T10:38:27.494Z,1.25
2023-07-29T10:43:29.104Z,1.23
2023-07-29T10:48:33.609Z,1.52
2023-07-29T10:53:35.241Z,1.05
2023-07-29T10:58:36.828Z,1.85
2023-07-29T11:03:38.393Z,2.17
2023-07-29T11:08:39.975Z,1.40
2023-07-29T11:13:41.972Z,1.48
2023-07-29T11:18:45.186Z,1.73
2023-07-29T11:23:46.754Z,1.50
2023-07-29T11:28:48.462Z,1.73
2023-07-29T11:33:50.272Z,1.67
2023-07-29T11:38:51.842Z,1.60
2023-07-29T11:43:53.533Z,1.20
2023-07-29T11:48:55.931Z,1.23
2023-07-29T11:53:57.671Z,1.50
2023-07-29T11:58:59.431Z,1.30
2023-07-29T12:04:01.784Z,0.98
2023-07-29T12:09:03.462Z,1.20
2023-07-29T12:14:08.551Z,1.13
2023-07-29T12:24:15.295Z,1.23
2023-07-29T12:29:18.541Z,1.40
2023-07-29T12:34:21.380Z,0.90
2023-07-29T12:39:31.511Z,1.20
2023-07-29T12:44:36.056Z,1.00
2023-07-29T12:54:39.249Z,0.90
2023-07-29T12:59:40.913Z,1.10
2023-07-29T13:04:42.518Z,0.88
2023-07-29T13:09:44.258Z,1.20
2023-07-29T13:14:45.990Z,1.40
2023-07-29T13:19:47.588Z,1.20
2023-07-29T13:24:49.477Z,1.55
2023-07-29T13:29:51.185Z,1.40
2023-07-29T13:34:52.827Z,2.63
2023-07-29T13:39:54.460Z,1.25
2023-07-29T13:44:56.321Z,1.73
2023-07-29T13:49:57.907Z,1.75
2023-07-29T13:54:59.730Z,2.00
2023-07-29T14:00:01.315Z,2.67
2023-07-29T14:05:13.143Z,3.60
2023-07-29T14:10:14.885Z,2.63
2023-07-29T14:15:16.610Z,2.15
2023-07-29T14:20:20.524Z,2.20
2023-07-29T14:25:23.664Z,1.63
2023-07-29T14:30:25.412Z,2.55
2023-07-29T14:35:27.146Z,2.00
2023-07-29T14:40:28.725Z,2.10
2023-07-29T14:45:30.489Z,1.85
2023-07-29T14:50:32.104Z,1.70
2023-07-29T14:55:33.686Z,1.67
2023-07-29T15:00:35.302Z,1.92
2023-07-29T15:05:37.064Z,1.98
2023-07-29T15:10:38.746Z,1.80
2023-07-29T15:15:42.919Z,2.13
2023-07-29T15:20:45.652Z,2.50
2023-07-29T15:25:47.316Z,1.90
2023-07-29T15:30:49.222Z,2.10
2023-07-29T15:35:50.854Z,1.70
2023-07-29T15:40:52.673Z,1.30
2023-07-29T15:45:54.456Z,1.42
2023-07-29T15:50:56.082Z,1.42
2023-07-29T15:55:57.876Z,1.45
2023-07-29T16:00:59.545Z,1.55
2023-07-29T16:06:01.099Z,2.30
2023-07-29T16:11:03.116Z,1.75
2023-07-29T16:16:05.053Z,1.95
2023-07-29T16:21:06.788Z,2.30
2023-07-29T16:26:08.433Z,2.58
2023-07-29T16:31:10.198Z,2.17
2023-07-29T16:36:11.765Z,2.45
2023-07-29T16:41:35.748Z,1.52
2023-07-29T16:46:35.318Z,1.98
2023-07-29T16:51:37.246Z,1.90
2023-07-29T16:56:39.178Z,2.08
2023-07-29T17:01:41.292Z,1.75
2023-07-29T17:06:43.029Z,1.77
2023-07-29T17:11:44.734Z,2.25
2023-07-29T17:16:46.274Z,2.10
2023-07-29T17:21:47.824Z,2.13
2023-07-29T17:26:49.550Z,1.83
2023-07-29T17:31:51.283Z,2.08
2023-07-29T17:36:52.859Z,2.20
2023-07-29T17:41:54.574Z,2.20
2023-07-29T17:46:56.396Z,2.53
2023-07-29T17:51:58.025Z,2.92
2023-07-29T17:56:59.800Z,3.08
2023-07-29T18:02:01.404Z,3.10
2023-07-29T18:07:03.076Z,2.88
2023-07-29T18:12:05.162Z,3.30
2023-07-29T18:17:06.958Z,2.83
2023-07-29T18:22:08.781Z,2.90
2023-07-29T18:27:10.416Z,2.53
2023-07-29T18:32:12.101Z,3.00
2023-07-29T18:37:13.713Z,2.95
2023-07-29T18:42:15.327Z,3.20
2023-07-29T18:47:16.974Z,3.30
2023-07-29T18:52:18.650Z,2.72
2023-07-29T18:57:20.250Z,3.05
2023-07-29T19:02:21.929Z,3.75
2023-07-29T19:07:23.548Z,3.13
2023-07-29T19:12:25.144Z,3.63
2023-07-29T19:17:26.938Z,3.50
2023-07-29T19:22:28.491Z,3.92
2023-07-29T19:27:30.149Z,4.07
2023-07-29T19:32:32.385Z,4.07
2023-07-29T19:37:34.102Z,4.90
2023-07-29T19:42:35.707Z,5.05
2023-07-29T19:47:37.458Z,5.43
2023-07-29T19:52:39.387Z,5.80
2023-07-29T19:57:41.008Z,6.18
2023-07-29T20:02:42.573Z,6.22
2023-07-29T20:07:44.144Z,5.90
2023-07-29T20:12:45.815Z,5.80
2023-07-29T20:17:47.484Z,6.38
2023-07-29T20:22:49.104Z,7.43
2023-07-29T20:27:50.759Z,7.93
2023-07-29T20:32:52.451Z,8.52
2023-07-29T20:37:54.332Z,8.30
2023-07-29T20:42:56.035Z,9.45
2023-07-29T20:47:57.742Z,8.68
2023-07-29T20:52:59.469Z,9.20
2023-07-29T20:58:01.104Z,9.48
2023-07-29T21:03:02.734Z,10.27
2023-07-29T21:08:04.644Z,10.00
2023-07-29T21:13:06.278Z,11.93
2023-07-29T21:18:07.899Z,9.32
2023-07-29T21:23:09.545Z,10.15
2023-07-29T21:28:11.153Z,10.85
2023-07-29T21:33:12.880Z,9.32
2023-07-29T21:38:28.812Z,11.52
2023-07-29T21:43:31.253Z,10.40
2023-07-29T21:48:32.835Z,10.40
2023-07-29T21:53:34.393Z,11.73
2023-07-29T21:58:36.044Z,11.13
2023-07-29T22:03:37.669Z,11.45
2023-07-29T22:08:39.212Z,11.25
2023-07-29T22:13:40.764Z,10.90
2023-07-29T22:18:42.458Z,12.05
2023-07-29T22:23:58.253Z,11.55
2023-07-29T22:29:01.896Z,10.80
2023-07-29T22:34:03.825Z,9.52
2023-07-29T22:39:05.658Z,7.78
2023-07-29T22:44:07.252Z,8.80
2023-07-29T22:49:08.915Z,9.27
2023-07-29T22:54:10.504Z,7.15
2023-07-29T22:59:12.059Z,7.28
2023-07-29T23:04:13.694Z,6.35
2023-07-29T23:09:15.431Z,6.15
2023-07-29T23:14:16.996Z,5.88
2023-07-29T23:19:18.565Z,5.35
2023-07-29T23:24:20.231Z,5.13
2023-07-29T23:29:22.065Z,5.07
2023-07-29T23:34:23.762Z,5.30
2023-07-29T23:39:25.476Z,4.75
2023-07-29T23:44:27.158Z,5.25
2023-07-29T23:49:28.760Z,5.00
2023-07-29T23:54:32.592Z,5.88
2023-07-29T23:59:36.985Z,5.07
